sensor_id;sensor_type;location;lat;lon;timestamp;P1;durP1;ratioP1;P2;durP2;ratioP2
56041;SDS011;48756;41.374;2.066;2023-02-18T00:01:18;15.43;;;9.63;;
56041;SDS011;48756;41.374;2.066;2023-02-18T00:03:45;17.52;;;11.32;;
56041;SDS011;48756;41.374;2.066;2023-02-18T00:06:16;20.65;;;11.52;;
56041;SDS011;48756;41.374;2.066;2023-02-18T00:08:53;13.63;;;10.45;;
56041;SDS011;48756;41.374;2.066;2023-02-18T00:11:21;16.13;;;9.13;;
56041;SDS011;48756;41.374;2.066;2023-02-18T00:13:53;10.98;;;8.32;;
56041;SDS011;48756;41.374;2.066;2023-02-18T00:16:21;9.82;;;7.70;;
56041;SDS011;48756;41.374;2.066;2023-02-18T00:18:47;17.38;;;10.35;;
56041;SDS011;48756;41.374;2.066;2023-02-18T00:21:13;13.65;;;8.57;;
56041;SDS011;48756;41.374;2.066;2023-02-18T00:23:39;10.23;;;9.00;;
56041;SDS011;48756;41.374;2.066;2023-02-18T00:26:06;15.77;;;10.98;;
56041;SDS011;48756;41.374;2.066;2023-02-18T00:28:33;13.38;;;9.32;;
56041;SDS011;48756;41.374;2.066;2023-02-18T00:31:04;14.75;;;8.93;;
56041;SDS011;48756;41.374;2.066;2023-02-18T00:33:31;15.20;;;9.70;;
56041;SDS011;48756;41.374;2.066;2023-02-18T00:36:09;11.93;;;7.33;;
56041;SDS011;48756;41.374;2.066;2023-02-18T00:38:36;11.88;;;9.00;;
56041;SDS011;48756;41.374;2.066;2023-02-18T00:41:23;12.55;;;8.95;;
56041;SDS011;48756;41.374;2.066;2023-02-18T00:43:50;14.23;;;9.60;;
56041;SDS011;48756;41.374;2.066;2023-02-18T00:46:19;14.65;;;9.25;;
56041;SDS011;48756;41.374;2.066;2023-02-18T00:48:45;12.45;;;9.85;;
56041;SDS011;48756;41.374;2.066;2023-02-18T00:51:11;14.47;;;9.13;;
56041;SDS011;48756;41.374;2.066;2023-02-18T00:53:37;9.25;;;7.82;;
56041;SDS011;48756;41.374;2.066;2023-02-18T00:56:02;10.40;;;8.80;;
56041;SDS011;48756;41.374;2.066;2023-02-18T00:58:28;17.42;;;10.32;;
56041;SDS011;48756;41.374;2.066;2023-02-18T01:00:54;14.82;;;9.60;;
56041;SDS011;48756;41.374;2.066;2023-02-18T01:03:20;12.60;;;10.63;;
56041;SDS011;48756;41.374;2.066;2023-02-18T01:05:47;10.43;;;8.98;;
56041;SDS011;48756;41.374;2.066;2023-02-18T01:08:14;10.38;;;8.30;;
56041;SDS011;48756;41.374;2.066;2023-02-18T01:10:42;12.73;;;8.35;;
56041;SDS011;48756;41.374;2.066;2023-02-18T01:13:09;11.95;;;7.65;;
56041;SDS011;48756;41.374;2.066;2023-02-18T01:15:37;13.65;;;9.93;;
56041;SDS011;48756;41.374;2.066;2023-02-18T01:18:03;12.38;;;9.95;;
56041;SDS011;48756;41.374;2.066;2023-02-18T01:20:29;11.23;;;8.63;;
56041;SDS011;48756;41.374;2.066;2023-02-18T01:22:59;10.95;;;9.15;;
56041;SDS011;48756;41.374;2.066;2023-02-18T01:25:24;12.03;;;8.27;;
56041;SDS011;48756;41.374;2.066;2023-02-18T01:27:50;13.23;;;9.98;;
56041;SDS011;48756;41.374;2.066;2023-02-18T01:30:16;14.55;;;10.05;;
56041;SDS011;48756;41.374;2.066;2023-02-18T01:32:42;12.13;;;9.60;;
56041;SDS011;48756;41.374;2.066;2023-02-18T01:35:10;11.93;;;8.73;;
56041;SDS011;48756;41.374;2.066;2023-02-18T01:37:37;13.15;;;10.68;;
56041;SDS011;48756;41.374;2.066;2023-02-18T01:40:03;13.97;;;8.27;;
56041;SDS011;48756;41.374;2.066;2023-02-18T01:42:30;11.32;;;9.38;;
56041;SDS011;48756;41.374;2.066;2023-02-18T01:50:41;12.57;;;10.88;;
56041;SDS011;48756;41.374;2.066;2023-02-18T01:53:10;15.77;;;9.52;;
56041;SDS011;48756;41.374;2.066;2023-02-18T01:55:40;11.63;;;9.00;;
56041;SDS011;48756;41.374;2.066;2023-02-18T01:58:06;15.10;;;9.70;;
56041;SDS011;48756;41.374;2.066;2023-02-18T02:02:58;14.07;;;9.90;;
56041;SDS011;48756;41.374;2.066;2023-02-18T02:05:23;13.65;;;10.55;;
56041;SDS011;48756;41.374;2.066;2023-02-18T02:07:54;12.95;;;9.73;;
56041;SDS011;48756;41.374;2.066;2023-02-18T02:10:20;12.10;;;9.13;;
56041;SDS011;48756;41.374;2.066;2023-02-18T02:37:11;16.63;;;10.57;;
56041;SDS011;48756;41.374;2.066;2023-02-18T02:48:27;10.82;;;8.13;;
56041;SDS011;48756;41.374;2.066;2023-02-18T02:51:08;16.10;;;10.93;;
56041;SDS011;48756;41.374;2.066;2023-02-18T02:53:39;16.17;;;9.57;;
56041;SDS011;48756;41.374;2.066;2023-02-18T02:56:08;13.25;;;10.20;;
56041;SDS011;48756;41.374;2.066;2023-02-18T02:58:37;12.02;;;8.73;;
56041;SDS011;48756;41.374;2.066;2023-02-18T03:07:42;10.95;;;7.88;;
56041;SDS011;48756;41.374;2.066;2023-02-18T03:10:30;16.67;;;9.18;;
56041;SDS011;48756;41.374;2.066;2023-02-18T03:18:30;13.30;;;9.88;;
56041;SDS011;48756;41.374;2.066;2023-02-18T03:21:22;15.70;;;12.35;;
56041;SDS011;48756;41.374;2.066;2023-02-18T03:23:57;11.82;;;10.25;;
56041;SDS011;48756;41.374;2.066;2023-02-18T03:26:31;14.57;;;10.48;;
56041;SDS011;48756;41.374;2.066;2023-02-18T03:29:00;13.10;;;9.50;;
56041;SDS011;48756;41.374;2.066;2023-02-18T03:31:30;12.48;;;8.80;;
56041;SDS011;48756;41.374;2.066;2023-02-18T03:34:03;13.35;;;9.98;;
56041;SDS011;48756;41.374;2.066;2023-02-18T03:39:10;16.95;;;9.77;;
56041;SDS011;48756;41.374;2.066;2023-02-18T03:41:42;14.75;;;8.77;;
56041;SDS011;48756;41.374;2.066;2023-02-18T03:44:08;13.05;;;9.70;;
56041;SDS011;48756;41.374;2.066;2023-02-18T03:46:36;14.65;;;10.18;;
56041;SDS011;48756;41.374;2.066;2023-02-18T03:49:03;13.13;;;9.27;;
56041;SDS011;48756;41.374;2.066;2023-02-18T03:51:29;13.55;;;10.70;;
56041;SDS011;48756;41.374;2.066;2023-02-18T03:53:55;14.25;;;8.82;;
56041;SDS011;48756;41.374;2.066;2023-02-18T03:56:24;11.65;;;9.10;;
56041;SDS011;48756;41.374;2.066;2023-02-18T03:58:49;14.82;;;8.25;;
56041;SDS011;48756;41.374;2.066;2023-02-18T04:01:15;12.73;;;9.15;;
56041;SDS011;48756;41.374;2.066;2023-02-18T04:03:40;11.00;;;9.73;;
56041;SDS011;48756;41.374;2.066;2023-02-18T04:06:06;11.33;;;9.37;;
56041;SDS011;48756;41.374;2.066;2023-02-18T04:08:32;15.70;;;9.20;;
56041;SDS011;48756;41.374;2.066;2023-02-18T04:10:57;13.48;;;8.43;;
56041;SDS011;48756;41.374;2.066;2023-02-18T04:13:23;13.25;;;10.20;;
56041;SDS011;48756;41.374;2.066;2023-02-18T04:15:49;11.37;;;9.17;;
56041;SDS011;48756;41.374;2.066;2023-02-18T04:18:24;11.48;;;8.90;;
56041;SDS011;48756;41.374;2.066;2023-02-18T04:20:49;12.37;;;9.53;;
56041;SDS011;48756;41.374;2.066;2023-02-18T04:23:16;11.45;;;7.68;;
56041;SDS011;48756;41.374;2.066;2023-02-18T04:25:41;13.17;;;9.83;;
56041;SDS011;48756;41.374;2.066;2023-02-18T04:28:07;10.57;;;8.38;;
56041;SDS011;48756;41.374;2.066;2023-02-18T04:30:35;11.00;;;8.77;;
56041;SDS011;48756;41.374;2.066;2023-02-18T04:33:01;12.90;;;10.18;;
56041;SDS011;48756;41.374;2.066;2023-02-18T04:35:26;12.20;;;8.97;;
56041;SDS011;48756;41.374;2.066;2023-02-18T04:37:52;12.80;;;8.23;;
56041;SDS011;48756;41.374;2.066;2023-02-18T04:40:17;12.70;;;9.20;;
56041;SDS011;48756;41.374;2.066;2023-02-18T04:42:43;9.48;;;7.38;;
56041;SDS011;48756;41.374;2.066;2023-02-18T04:45:08;13.83;;;8.90;;
56041;SDS011;48756;41.374;2.066;2023-02-18T04:47:34;10.70;;;8.23;;
56041;SDS011;48756;41.374;2.066;2023-02-18T04:49:59;12.80;;;11.50;;
56041;SDS011;48756;41.374;2.066;2023-02-18T04:52:25;14.30;;;7.88;;
56041;SDS011;48756;41.374;2.066;2023-02-18T04:54:50;17.37;;;9.80;;
56041;SDS011;48756;41.374;2.066;2023-02-18T04:57:16;14.10;;;8.98;;
56041;SDS011;48756;41.374;2.066;2023-02-18T04:59:42;14.10;;;9.70;;
56041;SDS011;48756;41.374;2.066;2023-02-18T05:02:07;11.80;;;9.10;;
56041;SDS011;48756;41.374;2.066;2023-02-18T05:04:33;14.17;;;9.47;;
56041;SDS011;48756;41.374;2.066;2023-02-18T05:06:59;12.02;;;9.05;;
56041;SDS011;48756;41.374;2.066;2023-02-18T05:09:24;17.23;;;9.63;;
56041;SDS011;48756;41.374;2.066;2023-02-18T05:11:50;13.15;;;10.20;;
56041;SDS011;48756;41.374;2.066;2023-02-18T05:14:16;16.17;;;9.55;;
56041;SDS011;48756;41.374;2.066;2023-02-18T05:16:42;12.35;;;9.10;;
56041;SDS011;48756;41.374;2.066;2023-02-18T05:19:08;16.07;;;10.73;;
56041;SDS011;48756;41.374;2.066;2023-02-18T05:21:38;12.10;;;8.77;;
56041;SDS011;48756;41.374;2.066;2023-02-18T05:24:07;15.02;;;9.75;;
56041;SDS011;48756;41.374;2.066;2023-02-18T05:26:36;20.17;;;10.95;;
56041;SDS011;48756;41.374;2.066;2023-02-18T05:29:02;16.33;;;10.23;;
56041;SDS011;48756;41.374;2.066;2023-02-18T05:31:27;14.35;;;9.85;;
56041;SDS011;48756;41.374;2.066;2023-02-18T05:33:53;12.35;;;8.25;;
56041;SDS011;48756;41.374;2.066;2023-02-18T05:36:19;12.82;;;10.43;;
56041;SDS011;48756;41.374;2.066;2023-02-18T05:38:44;16.83;;;9.73;;
56041;SDS011;48756;41.374;2.066;2023-02-18T05:41:10;11.73;;;7.88;;
56041;SDS011;48756;41.374;2.066;2023-02-18T05:43:36;14.07;;;11.38;;
56041;SDS011;48756;41.374;2.066;2023-02-18T05:46:21;13.10;;;9.35;;
56041;SDS011;48756;41.374;2.066;2023-02-18T05:48:47;12.38;;;9.55;;
56041;SDS011;48756;41.374;2.066;2023-02-18T05:51:13;10.98;;;9.15;;
56041;SDS011;48756;41.374;2.066;2023-02-18T05:53:39;12.63;;;11.05;;
56041;SDS011;48756;41.374;2.066;2023-02-18T05:56:05;11.98;;;9.43;;
56041;SDS011;48756;41.374;2.066;2023-02-18T05:58:31;12.32;;;9.18;;
56041;SDS011;48756;41.374;2.066;2023-02-18T06:00:56;11.80;;;8.30;;
56041;SDS011;48756;41.374;2.066;2023-02-18T06:03:22;12.50;;;8.17;;
56041;SDS011;48756;41.374;2.066;2023-02-18T06:05:51;11.07;;;7.67;;
56041;SDS011;48756;41.374;2.066;2023-02-18T06:08:16;13.00;;;9.48;;
56041;SDS011;48756;41.374;2.066;2023-02-18T06:10:44;13.57;;;9.70;;
56041;SDS011;48756;41.374;2.066;2023-02-18T06:13:10;11.25;;;9.98;;
56041;SDS011;48756;41.374;2.066;2023-02-18T06:15:35;14.43;;;9.43;;
56041;SDS011;48756;41.374;2.066;2023-02-18T06:18:01;12.00;;;10.15;;
56041;SDS011;48756;41.374;2.066;2023-02-18T06:20:27;15.83;;;9.37;;
56041;SDS011;48756;41.374;2.066;2023-02-18T06:22:52;13.00;;;7.83;;
56041;SDS011;48756;41.374;2.066;2023-02-18T06:25:18;16.63;;;10.50;;
56041;SDS011;48756;41.374;2.066;2023-02-18T06:27:43;12.73;;;8.50;;
56041;SDS011;48756;41.374;2.066;2023-02-18T06:30:09;12.60;;;9.93;;
56041;SDS011;48756;41.374;2.066;2023-02-18T06:32:35;14.40;;;9.38;;
56041;SDS011;48756;41.374;2.066;2023-02-18T06:35:01;14.73;;;9.67;;
56041;SDS011;48756;41.374;2.066;2023-02-18T06:39:52;13.15;;;8.70;;
56041;SDS011;48756;41.374;2.066;2023-02-18T06:42:18;13.47;;;10.63;;
56041;SDS011;48756;41.374;2.066;2023-02-18T06:44:43;15.90;;;10.77;;
56041;SDS011;48756;41.374;2.066;2023-02-18T06:47:09;15.67;;;9.93;;
56041;SDS011;48756;41.374;2.066;2023-02-18T06:49:34;16.03;;;10.77;;
56041;SDS011;48756;41.374;2.066;2023-02-18T06:52:00;12.65;;;8.65;;
56041;SDS011;48756;41.374;2.066;2023-02-18T06:54:26;27.38;;;9.80;;
56041;SDS011;48756;41.374;2.066;2023-02-18T06:56:51;17.42;;;11.43;;
56041;SDS011;48756;41.374;2.066;2023-02-18T06:59:18;11.18;;;7.57;;
56041;SDS011;48756;41.374;2.066;2023-02-18T07:01:43;13.40;;;9.98;;
56041;SDS011;48756;41.374;2.066;2023-02-18T07:04:09;13.00;;;10.40;;
56041;SDS011;48756;41.374;2.066;2023-02-18T07:06:34;11.73;;;7.97;;
56041;SDS011;48756;41.374;2.066;2023-02-18T07:09:00;17.33;;;9.07;;
56041;SDS011;48756;41.374;2.066;2023-02-18T07:11:25;12.05;;;10.57;;
56041;SDS011;48756;41.374;2.066;2023-02-18T07:13:51;15.20;;;9.27;;
56041;SDS011;48756;41.374;2.066;2023-02-18T07:16:17;18.73;;;9.03;;
56041;SDS011;48756;41.374;2.066;2023-02-18T07:18:42;15.97;;;8.67;;
56041;SDS011;48756;41.374;2.066;2023-02-18T07:21:08;12.60;;;8.03;;
56041;SDS011;48756;41.374;2.066;2023-02-18T07:23:36;14.63;;;9.50;;
56041;SDS011;48756;41.374;2.066;2023-02-18T07:26:09;14.13;;;9.43;;
56041;SDS011;48756;41.374;2.066;2023-02-18T07:28:36;12.57;;;8.88;;
56041;SDS011;48756;41.374;2.066;2023-02-18T07:31:02;11.70;;;9.20;;
56041;SDS011;48756;41.374;2.066;2023-02-18T07:33:28;16.35;;;10.82;;
56041;SDS011;48756;41.374;2.066;2023-02-18T07:35:57;17.00;;;10.90;;
56041;SDS011;48756;41.374;2.066;2023-02-18T07:38:25;11.98;;;9.57;;
56041;SDS011;48756;41.374;2.066;2023-02-18T07:40:51;14.73;;;9.02;;
56041;SDS011;48756;41.374;2.066;2023-02-18T07:43:18;9.82;;;8.48;;
56041;SDS011;48756;41.374;2.066;2023-02-18T07:45:43;13.05;;;9.15;;
56041;SDS011;48756;41.374;2.066;2023-02-18T07:48:09;12.90;;;9.43;;
56041;SDS011;48756;41.374;2.066;2023-02-18T07:50:38;14.45;;;8.85;;
56041;SDS011;48756;41.374;2.066;2023-02-18T07:53:05;13.43;;;9.07;;
56041;SDS011;48756;41.374;2.066;2023-02-18T07:55:33;16.88;;;10.98;;
56041;SDS011;48756;41.374;2.066;2023-02-18T07:58:17;13.20;;;8.75;;
56041;SDS011;48756;41.374;2.066;2023-02-18T08:00:45;13.65;;;9.57;;
56041;SDS011;48756;41.374;2.066;2023-02-18T08:03:15;13.15;;;10.18;;
56041;SDS011;48756;41.374;2.066;2023-02-18T08:05:42;10.80;;;9.02;;
56041;SDS011;48756;41.374;2.066;2023-02-18T08:08:12;16.30;;;10.13;;
56041;SDS011;48756;41.374;2.066;2023-02-18T08:10:39;13.05;;;11.20;;
56041;SDS011;48756;41.374;2.066;2023-02-18T08:13:05;14.27;;;9.50;;
56041;SDS011;48756;41.374;2.066;2023-02-18T08:15:30;15.18;;;10.52;;
56041;SDS011;48756;41.374;2.066;2023-02-18T08:17:56;17.63;;;10.00;;
56041;SDS011;48756;41.374;2.066;2023-02-18T08:20:21;14.20;;;10.60;;
56041;SDS011;48756;41.374;2.066;2023-02-18T08:22:47;17.17;;;11.20;;
56041;SDS011;48756;41.374;2.066;2023-02-18T08:25:12;15.10;;;8.33;;
56041;SDS011;48756;41.374;2.066;2023-02-18T08:27:38;9.95;;;7.75;;
56041;SDS011;48756;41.374;2.066;2023-02-18T08:30:03;11.50;;;8.90;;
56041;SDS011;48756;41.374;2.066;2023-02-18T08:32:30;11.68;;;8.80;;
56041;SDS011;48756;41.374;2.066;2023-02-18T08:34:55;9.50;;;8.30;;
56041;SDS011;48756;41.374;2.066;2023-02-18T08:37:21;11.00;;;9.40;;
56041;SDS011;48756;41.374;2.066;2023-02-18T08:39:47;11.32;;;9.15;;
56041;SDS011;48756;41.374;2.066;2023-02-18T08:42:13;13.43;;;9.68;;
56041;SDS011;48756;41.374;2.066;2023-02-18T08:44:39;10.13;;;8.13;;
56041;SDS011;48756;41.374;2.066;2023-02-18T08:47:04;12.48;;;10.68;;
56041;SDS011;48756;41.374;2.066;2023-02-18T08:49:30;11.85;;;8.88;;
56041;SDS011;48756;41.374;2.066;2023-02-18T08:51:55;12.23;;;9.32;;
56041;SDS011;48756;41.374;2.066;2023-02-18T08:54:21;14.73;;;10.45;;
56041;SDS011;48756;41.374;2.066;2023-02-18T08:56:47;11.50;;;9.27;;
56041;SDS011;48756;41.374;2.066;2023-02-18T08:59:12;9.93;;;8.60;;
56041;SDS011;48756;41.374;2.066;2023-02-18T09:01:38;14.48;;;9.35;;
56041;SDS011;48756;41.374;2.066;2023-02-18T09:04:04;12.65;;;8.75;;
56041;SDS011;48756;41.374;2.066;2023-02-18T09:06:29;10.05;;;7.85;;
56041;SDS011;48756;41.374;2.066;2023-02-18T09:08:55;11.02;;;8.55;;
56041;SDS011;48756;41.374;2.066;2023-02-18T09:11:20;12.10;;;8.63;;
56041;SDS011;48756;41.374;2.066;2023-02-18T09:13:46;13.70;;;7.93;;
56041;SDS011;48756;41.374;2.066;2023-02-18T09:16:16;11.43;;;8.77;;
56041;SDS011;48756;41.374;2.066;2023-02-18T09:18:42;11.57;;;9.15;;
56041;SDS011;48756;41.374;2.066;2023-02-18T09:21:10;11.02;;;9.02;;
56041;SDS011;48756;41.374;2.066;2023-02-18T09:23:37;11.40;;;8.63;;
56041;SDS011;48756;41.374;2.066;2023-02-18T09:28:30;14.80;;;11.10;;
56041;SDS011;48756;41.374;2.066;2023-02-18T09:30:55;11.35;;;8.38;;
56041;SDS011;48756;41.374;2.066;2023-02-18T09:33:21;13.70;;;8.10;;
56041;SDS011;48756;41.374;2.066;2023-02-18T09:35:47;16.23;;;8.88;;
56041;SDS011;48756;41.374;2.066;2023-02-18T09:38:14;11.63;;;6.93;;
56041;SDS011;48756;41.374;2.066;2023-02-18T09:40:42;10.18;;;8.02;;
56041;SDS011;48756;41.374;2.066;2023-02-18T09:43:31;11.20;;;7.97;;
56041;SDS011;48756;41.374;2.066;2023-02-18T09:46:01;12.90;;;8.27;;
56041;SDS011;48756;41.374;2.066;2023-02-18T09:48:29;10.13;;;7.45;;
56041;SDS011;48756;41.374;2.066;2023-02-18T09:50:57;13.20;;;8.10;;
56041;SDS011;48756;41.374;2.066;2023-02-18T09:55:50;11.40;;;8.57;;
56041;SDS011;48756;41.374;2.066;2023-02-18T09:58:22;16.10;;;10.43;;
56041;SDS011;48756;41.374;2.066;2023-02-18T10:00:51;21.75;;;10.85;;
56041;SDS011;48756;41.374;2.066;2023-02-18T10:03:24;12.82;;;8.40;;
56041;SDS011;48756;41.374;2.066;2023-02-18T10:08:44;10.25;;;7.78;;
56041;SDS011;48756;41.374;2.066;2023-02-18T10:11:17;11.20;;;8.82;;
56041;SDS011;48756;41.374;2.066;2023-02-18T10:13:57;10.85;;;7.45;;
56041;SDS011;48756;41.374;2.066;2023-02-18T10:16:25;9.48;;;7.75;;
56041;SDS011;48756;41.374;2.066;2023-02-18T10:21:21;12.55;;;7.72;;
56041;SDS011;48756;41.374;2.066;2023-02-18T10:24:06;12.27;;;8.02;;
56041;SDS011;48756;41.374;2.066;2023-02-18T10:26:37;13.45;;;10.88;;
56041;SDS011;48756;41.374;2.066;2023-02-18T10:29:05;10.77;;;7.60;;
56041;SDS011;48756;41.374;2.066;2023-02-18T10:31:43;12.23;;;6.50;;
56041;SDS011;48756;41.374;2.066;2023-02-18T10:34:35;11.82;;;8.65;;
56041;SDS011;48756;41.374;2.066;2023-02-18T10:47:46;11.82;;;8.00;;
56041;SDS011;48756;41.374;2.066;2023-02-18T10:50:36;10.07;;;7.80;;
56041;SDS011;48756;41.374;2.066;2023-02-18T10:53:46;16.30;;;10.30;;
56041;SDS011;48756;41.374;2.066;2023-02-18T10:56:04;16.20;;;9.05;;
56041;SDS011;48756;41.374;2.066;2023-02-18T10:58:34;12.27;;;9.43;;
56041;SDS011;48756;41.374;2.066;2023-02-18T11:01:05;12.73;;;8.02;;
56041;SDS011;48756;41.374;2.066;2023-02-18T11:03:39;14.82;;;8.50;;
56041;SDS011;48756;41.374;2.066;2023-02-18T11:06:18;11.18;;;7.72;;
56041;SDS011;48756;41.374;2.066;2023-02-18T11:09:03;13.98;;;10.40;;
56041;SDS011;48756;41.374;2.066;2023-02-18T11:11:31;16.45;;;9.75;;
56041;SDS011;48756;41.374;2.066;2023-02-18T11:14:05;13.27;;;10.07;;
56041;SDS011;48756;41.374;2.066;2023-02-18T11:16:42;12.02;;;8.48;;
56041;SDS011;48756;41.374;2.066;2023-02-18T11:22:10;11.75;;;8.52;;
56041;SDS011;48756;41.374;2.066;2023-02-18T11:24:37;14.57;;;8.73;;
56041;SDS011;48756;41.374;2.066;2023-02-18T11:27:07;14.70;;;10.68;;
56041;SDS011;48756;41.374;2.066;2023-02-18T11:29:34;12.10;;;8.77;;
56041;SDS011;48756;41.374;2.066;2023-02-18T11:34:26;11.73;;;8.20;;
56041;SDS011;48756;41.374;2.066;2023-02-18T11:36:55;11.98;;;8.02;;
56041;SDS011;48756;41.374;2.066;2023-02-18T11:39:34;16.38;;;9.50;;
56041;SDS011;48756;41.374;2.066;2023-02-18T11:44:38;12.15;;;8.27;;
56041;SDS011;48756;41.374;2.066;2023-02-18T11:52:16;20.42;;;9.15;;
56041;SDS011;48756;41.374;2.066;2023-02-18T11:57:33;12.30;;;9.27;;
56041;SDS011;48756;41.374;2.066;2023-02-18T12:00:03;14.50;;;8.20;;
56041;SDS011;48756;41.374;2.066;2023-02-18T12:02:39;16.50;;;9.48;;
56041;SDS011;48756;41.374;2.066;2023-02-18T12:07:56;10.32;;;6.35;;
56041;SDS011;48756;41.374;2.066;2023-02-18T12:10:37;13.55;;;7.30;;
56041;SDS011;48756;41.374;2.066;2023-02-18T12:15:52;12.20;;;8.40;;
56041;SDS011;48756;41.374;2.066;2023-02-18T12:32:33;15.15;;;8.98;;
56041;SDS011;48756;41.374;2.066;2023-02-18T12:43:45;11.35;;;7.90;;
56041;SDS011;48756;41.374;2.066;2023-02-18T12:46:37;9.57;;;6.97;;
56041;SDS011;48756;41.374;2.066;2023-02-18T12:58:02;13.07;;;6.88;;
56041;SDS011;48756;41.374;2.066;2023-02-18T13:00:43;10.77;;;6.40;;
56041;SDS011;48756;41.374;2.066;2023-02-18T13:13:55;10.07;;;5.55;;
56041;SDS011;48756;41.374;2.066;2023-02-18T13:16:27;6.97;;;5.45;;
56041;SDS011;48756;41.374;2.066;2023-02-18T13:21:23;9.65;;;5.75;;
56041;SDS011;48756;41.374;2.066;2023-02-18T13:24:00;9.57;;;5.40;;
56041;SDS011;48756;41.374;2.066;2023-02-18T13:26:30;7.50;;;5.78;;
56041;SDS011;48756;41.374;2.066;2023-02-18T13:47:28;8.57;;;5.70;;
56041;SDS011;48756;41.374;2.066;2023-02-18T13:55:41;13.82;;;4.50;;
56041;SDS011;48756;41.374;2.066;2023-02-18T13:58:39;6.63;;;4.00;;
56041;SDS011;48756;41.374;2.066;2023-02-18T14:06:29;6.32;;;3.58;;
56041;SDS011;48756;41.374;2.066;2023-02-18T14:11:46;6.10;;;4.13;;
56041;SDS011;48756;41.374;2.066;2023-02-18T14:19:27;4.20;;;2.70;;
56041;SDS011;48756;41.374;2.066;2023-02-18T14:22:21;2.33;;;2.03;;
56041;SDS011;48756;41.374;2.066;2023-02-18T14:24:56;4.97;;;2.58;;
56041;SDS011;48756;41.374;2.066;2023-02-18T14:27:26;6.50;;;2.90;;
56041;SDS011;48756;41.374;2.066;2023-02-18T14:32:18;5.18;;;2.95;;
56041;SDS011;48756;41.374;2.066;2023-02-18T14:35:31;10.98;;;2.63;;
56041;SDS011;48756;41.374;2.066;2023-02-18T14:42:49;5.85;;;1.92;;
56041;SDS011;48756;41.374;2.066;2023-02-18T14:51:05;3.50;;;2.75;;
56041;SDS011;48756;41.374;2.066;2023-02-18T14:56:01;3.25;;;2.45;;
56041;SDS011;48756;41.374;2.066;2023-02-18T15:03:20;5.70;;;2.13;;
56041;SDS011;48756;41.374;2.066;2023-02-18T15:05:46;1.73;;;1.25;;
56041;SDS011;48756;41.374;2.066;2023-02-18T15:08:16;4.45;;;2.60;;
56041;SDS011;48756;41.374;2.066;2023-02-18T15:10:55;3.28;;;1.38;;
56041;SDS011;48756;41.374;2.066;2023-02-18T15:13:34;2.72;;;2.08;;
56041;SDS011;48756;41.374;2.066;2023-02-18T15:16:03;2.05;;;1.15;;
56041;SDS011;48756;41.374;2.066;2023-02-18T15:18:41;5.80;;;1.75;;
56041;SDS011;48756;41.374;2.066;2023-02-18T15:21:17;2.30;;;1.13;;
56041;SDS011;48756;41.374;2.066;2023-02-18T15:23:48;2.40;;;1.40;;
56041;SDS011;48756;41.374;2.066;2023-02-18T15:26:15;2.72;;;1.23;;
56041;SDS011;48756;41.374;2.066;2023-02-18T15:31:17;3.00;;;1.60;;
56041;SDS011;48756;41.374;2.066;2023-02-18T15:33:45;2.80;;;1.77;;
56041;SDS011;48756;41.374;2.066;2023-02-18T15:36:12;2.95;;;1.83;;
56041;SDS011;48756;41.374;2.066;2023-02-18T15:38:39;3.42;;;1.40;;
56041;SDS011;48756;41.374;2.066;2023-02-18T15:41:13;5.32;;;1.67;;
56041;SDS011;48756;41.374;2.066;2023-02-18T15:43:50;3.38;;;1.55;;
56041;SDS011;48756;41.374;2.066;2023-02-18T15:46:19;2.60;;;1.40;;
56041;SDS011;48756;41.374;2.066;2023-02-18T15:48:47;2.35;;;1.90;;
56041;SDS011;48756;41.374;2.066;2023-02-18T15:51:19;3.60;;;1.30;;
56041;SDS011;48756;41.374;2.066;2023-02-18T15:53:49;2.53;;;1.45;;
56041;SDS011;48756;41.374;2.066;2023-02-18T15:56:25;2.33;;;1.45;;
56041;SDS011;48756;41.374;2.066;2023-02-18T15:58:54;4.22;;;1.50;;
56041;SDS011;48756;41.374;2.066;2023-02-18T16:01:31;4.20;;;2.22;;
56041;SDS011;48756;41.374;2.066;2023-02-18T16:06:27;2.95;;;1.83;;
56041;SDS011;48756;41.374;2.066;2023-02-18T16:09:14;5.68;;;3.05;;
56041;SDS011;48756;41.374;2.066;2023-02-18T16:11:56;4.68;;;1.77;;
56041;SDS011;48756;41.374;2.066;2023-02-18T16:19:42;4.07;;;2.63;;
56041;SDS011;48756;41.374;2.066;2023-02-18T16:24:59;3.03;;;2.03;;
56041;SDS011;48756;41.374;2.066;2023-02-18T16:27:35;5.97;;;2.33;;
56041;SDS011;48756;41.374;2.066;2023-02-18T16:30:06;3.42;;;2.15;;
56041;SDS011;48756;41.374;2.066;2023-02-18T16:32:41;3.90;;;2.05;;
56041;SDS011;48756;41.374;2.066;2023-02-18T16:35:10;4.47;;;2.92;;
56041;SDS011;48756;41.374;2.066;2023-02-18T16:37:36;12.73;;;3.47;;
56041;SDS011;48756;41.374;2.066;2023-02-18T16:40:24;5.13;;;2.42;;
56041;SDS011;48756;41.374;2.066;2023-02-18T16:43:02;5.47;;;2.50;;
56041;SDS011;48756;41.374;2.066;2023-02-18T16:45:42;9.25;;;5.07;;
56041;SDS011;48756;41.374;2.066;2023-02-18T16:48:27;4.43;;;3.13;;
56041;SDS011;48756;41.374;2.066;2023-02-18T16:50:56;6.57;;;4.05;;
56041;SDS011;48756;41.374;2.066;2023-02-18T16:53:26;5.55;;;2.40;;
56041;SDS011;48756;41.374;2.066;2023-02-18T16:55:51;3.35;;;2.92;;
56041;SDS011;48756;41.374;2.066;2023-02-18T16:58:17;5.50;;;3.88;;
56041;SDS011;48756;41.374;2.066;2023-02-18T17:00:43;5.32;;;2.20;;
56041;SDS011;48756;41.374;2.066;2023-02-18T17:03:09;3.13;;;2.15;;
56041;SDS011;48756;41.374;2.066;2023-02-18T17:05:36;5.63;;;2.58;;
56041;SDS011;48756;41.374;2.066;2023-02-18T17:08:21;5.72;;;3.10;;
56041;SDS011;48756;41.374;2.066;2023-02-18T17:10:49;8.93;;;3.75;;
56041;SDS011;48756;41.374;2.066;2023-02-18T17:13:18;4.80;;;3.53;;
56041;SDS011;48756;41.374;2.066;2023-02-18T17:15:46;5.53;;;2.85;;
56041;SDS011;48756;41.374;2.066;2023-02-18T17:18:14;9.20;;;2.67;;
56041;SDS011;48756;41.374;2.066;2023-02-18T17:20:40;5.70;;;1.60;;
56041;SDS011;48756;41.374;2.066;2023-02-18T17:25:32;3.53;;;2.05;;
56041;SDS011;48756;41.374;2.066;2023-02-18T17:28:00;4.30;;;2.08;;
56041;SDS011;48756;41.374;2.066;2023-02-18T17:30:27;7.43;;;1.92;;
56041;SDS011;48756;41.374;2.066;2023-02-18T17:32:54;3.15;;;1.73;;
56041;SDS011;48756;41.374;2.066;2023-02-18T17:35:20;3.58;;;1.90;;
56041;SDS011;48756;41.374;2.066;2023-02-18T17:37:47;2.42;;;1.77;;
56041;SDS011;48756;41.374;2.066;2023-02-18T17:40:14;3.05;;;1.75;;
56041;SDS011;48756;41.374;2.066;2023-02-18T17:42:40;2.22;;;1.65;;
56041;SDS011;48756;41.374;2.066;2023-02-18T17:45:17;3.20;;;1.38;;
56041;SDS011;48756;41.374;2.066;2023-02-18T17:47:47;8.50;;;2.85;;
56041;SDS011;48756;41.374;2.066;2023-02-18T17:50:13;5.47;;;2.25;;
56041;SDS011;48756;41.374;2.066;2023-02-18T17:52:38;3.58;;;2.08;;
56041;SDS011;48756;41.374;2.066;2023-02-18T17:55:10;2.03;;;1.70;;
56041;SDS011;48756;41.374;2.066;2023-02-18T17:57:40;3.67;;;1.80;;
56041;SDS011;48756;41.374;2.066;2023-02-18T18:00:06;3.42;;;2.38;;
56041;SDS011;48756;41.374;2.066;2023-02-18T18:04:57;2.88;;;1.38;;
56041;SDS011;48756;41.374;2.066;2023-02-18T18:07:23;3.33;;;2.40;;
56041;SDS011;48756;41.374;2.066;2023-02-18T18:09:48;5.50;;;1.85;;
56041;SDS011;48756;41.374;2.066;2023-02-18T18:12:14;3.22;;;2.25;;
56041;SDS011;48756;41.374;2.066;2023-02-18T18:14:41;5.15;;;2.45;;
56041;SDS011;48756;41.374;2.066;2023-02-18T18:17:12;3.15;;;2.50;;
56041;SDS011;48756;41.374;2.066;2023-02-18T18:19:40;4.32;;;2.40;;
56041;SDS011;48756;41.374;2.066;2023-02-18T18:22:06;4.57;;;1.85;;
56041;SDS011;48756;41.374;2.066;2023-02-18T18:24:32;2.97;;;1.67;;
56041;SDS011;48756;41.374;2.066;2023-02-18T18:26:58;10.93;;;3.92;;
56041;SDS011;48756;41.374;2.066;2023-02-18T18:29:23;5.72;;;3.47;;